sensor_id;sensor_type;location;lat;lon;timestamp;P1;durP1;ratioP1;P2;durP2;ratioP2
10013;SDS011;45684;48.358;10.746;2022-10-04T00:00:48;2.70;;;2.50;;
10013;SDS011;45684;48.358;10.746;2022-10-04T00:03:17;2.60;;;2.50;;
10013;SDS011;45684;48.358;10.746;2022-10-04T00:05:54;2.50;;;2.30;;
10013;SDS011;45684;48.358;10.746;2022-10-04T00:08:25;2.70;;;2.60;;
10013;SDS011;45684;48.358;10.746;2022-10-04T00:11:00;3.33;;;2.37;;
10013;SDS011;45684;48.358;10.746;2022-10-04T00:13:30;2.67;;;2.47;;
10013;SDS011;45684;48.358;10.746;2022-10-04T00:16:03;2.70;;;2.50;;
10013;SDS011;45684;48.358;10.746;2022-10-04T00:18:36;2.50;;;2.40;;
10013;SDS011;45684;48.358;10.746;2022-10-04T00:21:07;2.50;;;2.30;;
10013;SDS011;45684;48.358;10.746;2022-10-04T00:23:43;5.73;;;2.70;;
10013;SDS011;45684;48.358;10.746;2022-10-04T00:34:51;2.57;;;2.37;;
10013;SDS011;45684;48.358;10.746;2022-10-04T00:37:22;2.10;;;2.00;;
10013;SDS011;45684;48.358;10.746;2022-10-04T00:39:55;2.20;;;2.00;;
10013;SDS011;45684;48.358;10.746;2022-10-04T00:45:24;3.00;;;2.80;;
10013;SDS011;45684;48.358;10.746;2022-10-04T00:48:03;2.37;;;2.00;;
10013;SDS011;45684;48.358;10.746;2022-10-04T00:50:57;2.70;;;2.00;;
10013;SDS011;45684;48.358;10.746;2022-10-04T00:53:37;2.40;;;2.20;;
10013;SDS011;45684;48.358;10.746;2022-10-04T00:56:13;2.97;;;1.97;;
10013;SDS011;45684;48.358;10.746;2022-10-04T00:58:59;2.50;;;1.93;;
10013;SDS011;45684;48.358;10.746;2022-10-04T01:01:34;2.20;;;2.00;;
10013;SDS011;45684;48.358;10.746;2022-10-04T01:04:03;2.10;;;2.00;;
10013;SDS011;45684;48.358;10.746;2022-10-04T01:06:38;2.23;;;2.13;;
10013;SDS011;45684;48.358;10.746;2022-10-04T01:09:09;2.50;;;2.30;;
10013;SDS011;45684;48.358;10.746;2022-10-04T01:11:40;2.70;;;2.47;;
10013;SDS011;45684;48.358;10.746;2022-10-04T01:14:18;2.10;;;2.00;;
10013;SDS011;45684;48.358;10.746;2022-10-04T01:16:53;2.20;;;2.00;;
10013;SDS011;45684;48.358;10.746;2022-10-04T01:19:25;2.90;;;2.20;;
10013;SDS011;45684;48.358;10.746;2022-10-04T01:22:02;2.20;;;2.10;;
10013;SDS011;45684;48.358;10.746;2022-10-04T01:24:39;2.50;;;2.27;;
10013;SDS011;45684;48.358;10.746;2022-10-04T01:30:07;2.20;;;2.10;;
10013;SDS011;45684;48.358;10.746;2022-10-04T01:32:37;3.00;;;2.10;;
10013;SDS011;45684;48.358;10.746;2022-10-04T01:35:06;2.10;;;2.00;;
10013;SDS011;45684;48.358;10.746;2022-10-04T01:37:36;2.10;;;2.00;;
10013;SDS011;45684;48.358;10.746;2022-10-04T01:40:07;2.40;;;2.20;;
10013;SDS011;45684;48.358;10.746;2022-10-04T01:42:37;2.00;;;1.90;;
10013;SDS011;45684;48.358;10.746;2022-10-04T01:45:11;2.17;;;2.07;;
10013;SDS011;45684;48.358;10.746;2022-10-04T01:47:47;2.53;;;2.10;;
10013;SDS011;45684;48.358;10.746;2022-10-04T01:50:20;2.10;;;2.00;;
10013;SDS011;45684;48.358;10.746;2022-10-04T01:52:54;2.20;;;2.07;;
10013;SDS011;45684;48.358;10.746;2022-10-04T01:55:29;2.13;;;2.03;;
10013;SDS011;45684;48.358;10.746;2022-10-04T01:58:01;2.30;;;2.10;;
10013;SDS011;45684;48.358;10.746;2022-10-04T02:00:37;4.13;;;2.30;;
10013;SDS011;45684;48.358;10.746;2022-10-04T02:03:10;3.77;;;2.13;;
10013;SDS011;45684;48.358;10.746;2022-10-04T02:05:47;2.20;;;2.10;;
10013;SDS011;45684;48.358;10.746;2022-10-04T02:08:22;2.40;;;2.20;;
10013;SDS011;45684;48.358;10.746;2022-10-04T02:10:53;2.47;;;2.27;;
10013;SDS011;45684;48.358;10.746;2022-10-04T02:13:23;2.00;;;1.90;;
10013;SDS011;45684;48.358;10.746;2022-10-04T02:15:54;2.40;;;2.30;;
10013;SDS011;45684;48.358;10.746;2022-10-04T02:18:24;2.30;;;1.90;;
10013;SDS011;45684;48.358;10.746;2022-10-04T02:20:55;2.20;;;2.10;;
10013;SDS011;45684;48.358;10.746;2022-10-04T02:23:24;2.30;;;2.20;;
10013;SDS011;45684;48.358;10.746;2022-10-04T02:25:54;2.10;;;2.00;;
10013;SDS011;45684;48.358;10.746;2022-10-04T02:28:22;2.50;;;2.30;;
10013;SDS011;45684;48.358;10.746;2022-10-04T02:30:51;1.90;;;1.80;;
10013;SDS011;45684;48.358;10.746;2022-10-04T02:33:38;2.20;;;2.00;;
10013;SDS011;45684;48.358;10.746;2022-10-04T02:36:07;2.03;;;1.93;;
10013;SDS011;45684;48.358;10.746;2022-10-04T02:38:36;2.53;;;2.30;;
10013;SDS011;45684;48.358;10.746;2022-10-04T02:41:10;2.20;;;2.00;;
10013;SDS011;45684;48.358;10.746;2022-10-04T02:43:49;2.60;;;2.00;;
10013;SDS011;45684;48.358;10.746;2022-10-04T02:46:22;2.23;;;2.00;;
10013;SDS011;45684;48.358;10.746;2022-10-04T02:48:55;2.23;;;2.03;;
10013;SDS011;45684;48.358;10.746;2022-10-04T02:51:25;2.10;;;2.00;;
10013;SDS011;45684;48.358;10.746;2022-10-04T02:54:03;2.43;;;2.33;;
10013;SDS011;45684;48.358;10.746;2022-10-04T02:56:37;1.90;;;1.80;;
10013;SDS011;45684;48.358;10.746;2022-10-04T02:59:06;1.93;;;1.83;;
10013;SDS011;45684;48.358;10.746;2022-10-04T03:01:41;2.30;;;2.10;;
10013;SDS011;45684;48.358;10.746;2022-10-04T03:04:15;2.10;;;1.90;;
10013;SDS011;45684;48.358;10.746;2022-10-04T03:06:46;2.10;;;1.90;;
10013;SDS011;45684;48.358;10.746;2022-10-04T03:09:14;2.10;;;2.00;;
10013;SDS011;45684;48.358;10.746;2022-10-04T03:11:44;2.00;;;1.90;;
10013;SDS011;45684;48.358;10.746;2022-10-04T03:14:15;1.97;;;1.87;;
10013;SDS011;45684;48.358;10.746;2022-10-04T03:16:46;2.00;;;1.90;;
10013;SDS011;45684;48.358;10.746;2022-10-04T03:19:19;2.10;;;2.00;;
10013;SDS011;45684;48.358;10.746;2022-10-04T03:21:52;2.10;;;1.83;;
10013;SDS011;45684;48.358;10.746;2022-10-04T03:24:26;1.83;;;1.73;;
10013;SDS011;45684;48.358;10.746;2022-10-04T03:26:58;1.83;;;1.73;;
10013;SDS011;45684;48.358;10.746;2022-10-04T03:29:30;2.20;;;2.00;;
10013;SDS011;45684;48.358;10.746;2022-10-04T03:31:59;2.20;;;1.90;;
10013;SDS011;45684;48.358;10.746;2022-10-04T03:34:31;2.07;;;1.97;;
10013;SDS011;45684;48.358;10.746;2022-10-04T03:37:04;2.00;;;1.90;;
10013;SDS011;45684;48.358;10.746;2022-10-04T03:39:36;2.03;;;1.90;;
10013;SDS011;45684;48.358;10.746;2022-10-04T03:42:10;3.23;;;2.10;;
10013;SDS011;45684;48.358;10.746;2022-10-04T03:44:41;2.00;;;1.90;;
10013;SDS011;45684;48.358;10.746;2022-10-04T03:47:12;2.03;;;1.83;;
10013;SDS011;45684;48.358;10.746;2022-10-04T03:49:43;2.33;;;2.17;;
10013;SDS011;45684;48.358;10.746;2022-10-04T03:52:16;2.10;;;1.90;;
10013;SDS011;45684;48.358;10.746;2022-10-04T03:54:47;2.10;;;1.90;;
10013;SDS011;45684;48.358;10.746;2022-10-04T03:57:19;2.27;;;2.07;;
10013;SDS011;45684;48.358;10.746;2022-10-04T03:59:48;1.93;;;1.83;;
10013;SDS011;45684;48.358;10.746;2022-10-04T04:02:17;2.10;;;2.00;;
10013;SDS011;45684;48.358;10.746;2022-10-04T04:04:54;2.20;;;2.00;;
10013;SDS011;45684;48.358;10.746;2022-10-04T04:07:32;2.13;;;2.03;;
10013;SDS011;45684;48.358;10.746;2022-10-04T04:10:06;2.37;;;2.17;;
10013;SDS011;45684;48.358;10.746;2022-10-04T04:12:45;4.20;;;2.40;;
10013;SDS011;45684;48.358;10.746;2022-10-04T04:15:16;2.20;;;2.10;;
10013;SDS011;45684;48.358;10.746;2022-10-04T04:17:44;2.40;;;2.20;;
10013;SDS011;45684;48.358;10.746;2022-10-04T04:20:16;2.13;;;2.03;;
10013;SDS011;45684;48.358;10.746;2022-10-04T04:22:51;2.20;;;2.10;;
10013;SDS011;45684;48.358;10.746;2022-10-04T04:25:24;2.20;;;2.10;;
10013;SDS011;45684;48.358;10.746;2022-10-04T04:27:58;2.00;;;1.90;;
10013;SDS011;45684;48.358;10.746;2022-10-04T04:30:31;1.97;;;1.87;;
10013;SDS011;45684;48.358;10.746;2022-10-04T04:33:06;2.50;;;1.90;;
10013;SDS011;45684;48.358;10.746;2022-10-04T04:35:44;2.50;;;2.10;;
10013;SDS011;45684;48.358;10.746;2022-10-04T04:38:16;2.20;;;2.10;;
10013;SDS011;45684;48.358;10.746;2022-10-04T04:40:47;2.20;;;2.10;;
10013;SDS011;45684;48.358;10.746;2022-10-04T04:43:17;2.03;;;1.80;;
10013;SDS011;45684;48.358;10.746;2022-10-04T04:45:46;2.07;;;1.80;;
10013;SDS011;45684;48.358;10.746;2022-10-04T04:48:34;2.20;;;2.00;;
10013;SDS011;45684;48.358;10.746;2022-10-04T04:51:03;2.00;;;1.90;;
10013;SDS011;45684;48.358;10.746;2022-10-04T04:53:31;2.30;;;2.20;;
10013;SDS011;45684;48.358;10.746;2022-10-04T04:56:00;2.00;;;1.90;;
10013;SDS011;45684;48.358;10.746;2022-10-04T04:58:32;1.80;;;1.70;;
10013;SDS011;45684;48.358;10.746;2022-10-04T05:01:03;1.90;;;1.80;;
10013;SDS011;45684;48.358;10.746;2022-10-04T05:03:33;2.00;;;1.80;;
10013;SDS011;45684;48.358;10.746;2022-10-04T05:06:01;3.50;;;3.30;;
10013;SDS011;45684;48.358;10.746;2022-10-04T05:08:30;5.50;;;5.10;;
10013;SDS011;45684;48.358;10.746;2022-10-04T05:11:10;5.40;;;4.53;;
10013;SDS011;45684;48.358;10.746;2022-10-04T05:13:44;3.40;;;3.10;;
10013;SDS011;45684;48.358;10.746;2022-10-04T05:16:16;2.83;;;2.63;;
10013;SDS011;45684;48.358;10.746;2022-10-04T05:18:46;3.27;;;2.97;;
10013;SDS011;45684;48.358;10.746;2022-10-04T05:21:17;3.13;;;2.93;;
10013;SDS011;45684;48.358;10.746;2022-10-04T05:23:50;3.10;;;2.80;;
10013;SDS011;45684;48.358;10.746;2022-10-04T05:26:20;4.57;;;3.00;;
10013;SDS011;45684;48.358;10.746;2022-10-04T05:28:55;3.03;;;2.73;;
10013;SDS011;45684;48.358;10.746;2022-10-04T05:31:31;3.07;;;2.87;;
10013;SDS011;45684;48.358;10.746;2022-10-04T05:34:16;3.90;;;3.60;;
10013;SDS011;45684;48.358;10.746;2022-10-04T05:39:53;5.10;;;4.70;;
10013;SDS011;45684;48.358;10.746;2022-10-04T05:42:32;8.20;;;7.50;;
10013;SDS011;45684;48.358;10.746;2022-10-04T05:45:12;7.63;;;6.83;;
10013;SDS011;45684;48.358;10.746;2022-10-04T05:47:44;6.13;;;5.20;;
10013;SDS011;45684;48.358;10.746;2022-10-04T05:50:15;4.70;;;4.27;;
10013;SDS011;45684;48.358;10.746;2022-10-04T05:52:48;3.20;;;3.00;;
10013;SDS011;45684;48.358;10.746;2022-10-04T05:55:22;3.07;;;2.87;;
10013;SDS011;45684;48.358;10.746;2022-10-04T06:03:54;3.33;;;3.03;;
10013;SDS011;45684;48.358;10.746;2022-10-04T06:06:37;4.80;;;3.20;;
10013;SDS011;45684;48.358;10.746;2022-10-04T06:09:08;3.77;;;2.90;;
10013;SDS011;45684;48.358;10.746;2022-10-04T06:11:47;3.57;;;3.27;;
10013;SDS011;45684;48.358;10.746;2022-10-04T06:14:36;3.50;;;3.20;;
10013;SDS011;45684;48.358;10.746;2022-10-04T06:17:24;3.10;;;2.80;;
10013;SDS011;45684;48.358;10.746;2022-10-04T06:20:26;3.90;;;3.60;;
10013;SDS011;45684;48.358;10.746;2022-10-04T06:23:18;5.17;;;4.67;;
10013;SDS011;45684;48.358;10.746;2022-10-04T06:25:47;4.60;;;4.20;;
10013;SDS011;45684;48.358;10.746;2022-10-04T06:28:19;4.43;;;4.03;;
10013;SDS011;45684;48.358;10.746;2022-10-04T06:31:08;4.30;;;3.90;;
10013;SDS011;45684;48.358;10.746;2022-10-04T06:34:06;3.70;;;3.40;;
10013;SDS011;45684;48.358;10.746;2022-10-04T06:36:51;4.27;;;3.07;;
10013;SDS011;45684;48.358;10.746;2022-10-04T06:45:29;3.37;;;2.50;;
10013;SDS011;45684;48.358;10.746;2022-10-04T06:48:13;2.93;;;2.73;;
10013;SDS011;45684;48.358;10.746;2022-10-04T06:50:54;3.27;;;2.73;;
10013;SDS011;45684;48.358;10.746;2022-10-04T06:53:34;3.83;;;2.73;;
10013;SDS011;45684;48.358;10.746;2022-10-04T06:56:15;3.30;;;3.00;;
10013;SDS011;45684;48.358;10.746;2022-10-04T06:59:06;3.10;;;2.90;;
10013;SDS011;45684;48.358;10.746;2022-10-04T07:01:54;3.27;;;2.97;;
10013;SDS011;45684;48.358;10.746;2022-10-04T07:04:27;4.93;;;3.07;;
10013;SDS011;45684;48.358;10.746;2022-10-04T07:07:23;3.73;;;3.43;;
10013;SDS011;45684;48.358;10.746;2022-10-04T07:10:20;3.70;;;3.40;;
10013;SDS011;45684;48.358;10.746;2022-10-04T07:13:03;4.03;;;3.73;;
10013;SDS011;45684;48.358;10.746;2022-10-04T07:15:41;4.20;;;3.80;;
10013;SDS011;45684;48.358;10.746;2022-10-04T07:18:14;4.10;;;3.80;;
10013;SDS011;45684;48.358;10.746;2022-10-04T07:20:49;5.00;;;4.60;;
10013;SDS011;45684;48.358;10.746;2022-10-04T07:23:27;5.17;;;4.67;;
10013;SDS011;45684;48.358;10.746;2022-10-04T07:25:59;6.13;;;5.03;;
10013;SDS011;45684;48.358;10.746;2022-10-04T07:28:32;5.00;;;4.50;;
10013;SDS011;45684;48.358;10.746;2022-10-04T07:31:24;4.40;;;4.00;;
10013;SDS011;45684;48.358;10.746;2022-10-04T07:33:55;4.80;;;4.40;;
10013;SDS011;45684;48.358;10.746;2022-10-04T07:36:27;4.90;;;4.50;;
10013;SDS011;45684;48.358;10.746;2022-10-04T07:39:06;5.33;;;4.20;;
10013;SDS011;45684;48.358;10.746;2022-10-04T07:41:42;4.87;;;4.30;;
10013;SDS011;45684;48.358;10.746;2022-10-04T07:44:16;4.53;;;4.13;;
10013;SDS011;45684;48.358;10.746;2022-10-04T07:46:54;5.37;;;4.10;;
10013;SDS011;45684;48.358;10.746;2022-10-04T07:49:26;4.20;;;3.80;;
10013;SDS011;45684;48.358;10.746;2022-10-04T07:54:53;6.03;;;4.50;;
10013;SDS011;45684;48.358;10.746;2022-10-04T07:57:29;4.70;;;3.90;;
10013;SDS011;45684;48.358;10.746;2022-10-04T08:00:10;4.50;;;4.10;;
10013;SDS011;45684;48.358;10.746;2022-10-04T08:02:45;4.37;;;3.97;;
10013;SDS011;45684;48.358;10.746;2022-10-04T08:05:24;5.00;;;4.53;;
10013;SDS011;45684;48.358;10.746;2022-10-04T08:08:03;5.03;;;4.30;;
10013;SDS011;45684;48.358;10.746;2022-10-04T08:11:00;3.93;;;3.60;;
10013;SDS011;45684;48.358;10.746;2022-10-04T08:13:44;4.43;;;3.50;;
10013;SDS011;45684;48.358;10.746;2022-10-04T08:16:23;4.83;;;4.17;;
10013;SDS011;45684;48.358;10.746;2022-10-04T08:19:05;4.93;;;4.00;;
10013;SDS011;45684;48.358;10.746;2022-10-04T08:21:51;4.27;;;3.80;;
10013;SDS011;45684;48.358;10.746;2022-10-04T08:24:28;4.47;;;3.70;;
10013;SDS011;45684;48.358;10.746;2022-10-04T08:27:14;5.47;;;4.00;;
10013;SDS011;45684;48.358;10.746;2022-10-04T08:30:10;4.30;;;3.90;;
10013;SDS011;45684;48.358;10.746;2022-10-04T08:32:50;4.67;;;3.70;;
10013;SDS011;45684;48.358;10.746;2022-10-04T08:35:28;4.47;;;3.73;;
10013;SDS011;45684;48.358;10.746;2022-10-04T08:38:17;3.83;;;3.53;;
10013;SDS011;45684;48.358;10.746;2022-10-04T08:41:18;4.97;;;4.00;;
10013;SDS011;45684;48.358;10.746;2022-10-04T08:44:17;5.93;;;3.80;;
10013;SDS011;45684;48.358;10.746;2022-10-04T08:50:36;4.73;;;3.70;;
10013;SDS011;45684;48.358;10.746;2022-10-04T08:56:25;4.47;;;3.60;;
10013;SDS011;45684;48.358;10.746;2022-10-04T08:59:19;4.07;;;3.67;;
10013;SDS011;45684;48.358;10.746;2022-10-04T09:02:27;4.57;;;4.00;;
10013;SDS011;45684;48.358;10.746;2022-10-04T09:11:25;4.57;;;3.90;;
10013;SDS011;45684;48.358;10.746;2022-10-04T09:14:20;4.97;;;4.07;;
10013;SDS011;45684;48.358;10.746;2022-10-04T09:17:19;4.27;;;3.80;;
10013;SDS011;45684;48.358;10.746;2022-10-04T09:19:53;5.40;;;3.90;;
10013;SDS011;45684;48.358;10.746;2022-10-04T09:22:44;4.53;;;4.03;;
10013;SDS011;45684;48.358;10.746;2022-10-04T09:25:27;4.40;;;3.80;;
10013;SDS011;45684;48.358;10.746;2022-10-04T09:28:16;4.50;;;4.10;;
10013;SDS011;45684;48.358;10.746;2022-10-04T09:31:10;4.73;;;4.30;;
10013;SDS011;45684;48.358;10.746;2022-10-04T09:34:01;5.80;;;4.23;;
10013;SDS011;45684;48.358;10.746;2022-10-04T09:36:55;4.57;;;4.03;;
10013;SDS011;45684;48.358;10.746;2022-10-04T09:39:51;4.57;;;4.10;;
10013;SDS011;45684;48.358;10.746;2022-10-04T09:42:47;4.33;;;3.70;;
10013;SDS011;45684;48.358;10.746;2022-10-04T09:45:33;4.83;;;4.07;;
10013;SDS011;45684;48.358;10.746;2022-10-04T09:48:26;4.00;;;3.60;;
10013;SDS011;45684;48.358;10.746;2022-10-04T09:53:57;5.13;;;3.47;;
10013;SDS011;45684;48.358;10.746;2022-10-04T09:59:57;4.43;;;3.30;;
10013;SDS011;45684;48.358;10.746;2022-10-04T10:03:03;4.97;;;3.83;;
10013;SDS011;45684;48.358;10.746;2022-10-04T10:05:56;3.90;;;3.50;;
10013;SDS011;45684;48.358;10.746;2022-10-04T10:08:39;4.90;;;3.17;;
10013;SDS011;45684;48.358;10.746;2022-10-04T10:11:22;3.50;;;3.20;;
10013;SDS011;45684;48.358;10.746;2022-10-04T10:14:23;3.50;;;3.03;;
10013;SDS011;45684;48.358;10.746;2022-10-04T10:17:14;6.53;;;3.20;;
10013;SDS011;45684;48.358;10.746;2022-10-04T10:23:04;3.67;;;3.37;;
10013;SDS011;45684;48.358;10.746;2022-10-04T10:25:45;3.83;;;3.20;;
10013;SDS011;45684;48.358;10.746;2022-10-04T10:28:38;4.53;;;3.20;;
10013;SDS011;45684;48.358;10.746;2022-10-04T10:37:24;3.60;;;2.83;;
10013;SDS011;45684;48.358;10.746;2022-10-04T10:40:07;3.33;;;3.00;;
10013;SDS011;45684;48.358;10.746;2022-10-04T10:43:00;3.37;;;2.97;;
10013;SDS011;45684;48.358;10.746;2022-10-04T10:45:49;3.80;;;2.90;;
10013;SDS011;45684;48.358;10.746;2022-10-04T10:48:37;4.27;;;3.00;;
10013;SDS011;45684;48.358;10.746;2022-10-04T10:51:27;4.07;;;3.23;;
10013;SDS011;45684;48.358;10.746;2022-10-04T10:57:41;4.87;;;3.00;;
10013;SDS011;45684;48.358;10.746;2022-10-04T11:00:29;3.67;;;3.10;;
10013;SDS011;45684;48.358;10.746;2022-10-04T11:03:18;4.00;;;3.00;;
10013;SDS011;45684;48.358;10.746;2022-10-04T11:06:07;2.83;;;2.60;;
10013;SDS011;45684;48.358;10.746;2022-10-04T11:08:57;3.00;;;2.80;;
10013;SDS011;45684;48.358;10.746;2022-10-04T11:12:11;3.00;;;2.80;;
10013;SDS011;45684;48.358;10.746;2022-10-04T11:14:58;3.93;;;2.83;;
10013;SDS011;45684;48.358;10.746;2022-10-04T11:21:21;3.50;;;2.50;;
10013;SDS011;45684;48.358;10.746;2022-10-04T11:27:18;3.73;;;3.00;;
10013;SDS011;45684;48.358;10.746;2022-10-04T11:33:07;3.10;;;2.27;;
10013;SDS011;45684;48.358;10.746;2022-10-04T11:39:13;3.23;;;2.47;;
10013;SDS011;45684;48.358;10.746;2022-10-04T11:42:00;2.17;;;2.03;;
10013;SDS011;45684;48.358;10.746;2022-10-04T11:44:59;3.97;;;2.67;;
10013;SDS011;45684;48.358;10.746;2022-10-04T11:47:39;2.63;;;2.43;;
10013;SDS011;45684;48.358;10.746;2022-10-04T11:56:06;2.88;;;2.50;;
10013;SDS011;45684;48.358;10.746;2022-10-04T11:59:03;4.03;;;2.58;;
10013;SDS011;45684;48.358;10.746;2022-10-04T12:05:00;3.60;;;2.40;;
10013;SDS011;45684;48.358;10.746;2022-10-04T12:07:51;3.58;;;2.70;;
10013;SDS011;45684;48.358;10.746;2022-10-04T12:10:27;3.78;;;2.70;;
10013;SDS011;45684;48.358;10.746;2022-10-04T12:13:07;4.68;;;2.78;;
10013;SDS011;45684;48.358;10.746;2022-10-04T12:15:51;3.05;;;2.65;;
10013;SDS011;45684;48.358;10.746;2022-10-04T12:18:42;6.68;;;3.30;;
10013;SDS011;45684;48.358;10.746;2022-10-04T12:21:39;3.10;;;2.80;;
10013;SDS011;45684;48.358;10.746;2022-10-04T12:24:21;4.03;;;2.60;;
10013;SDS011;45684;48.358;10.746;2022-10-04T12:27:24;2.83;;;2.37;;
10013;SDS011;45684;48.358;10.746;2022-10-04T12:30:15;3.05;;;2.60;;
10013;SDS011;45684;48.358;10.746;2022-10-04T12:32:50;4.30;;;2.90;;
10013;SDS011;45684;48.358;10.746;2022-10-04T12:35:29;3.13;;;2.73;;
10013;SDS011;45684;48.358;10.746;2022-10-04T12:38:14;3.23;;;2.57;;
10013;SDS011;45684;48.358;10.746;2022-10-04T12:40:54;3.97;;;2.47;;
10013;SDS011;45684;48.358;10.746;2022-10-04T12:43:33;3.30;;;2.40;;
10013;SDS011;45684;48.358;10.746;2022-10-04T12:46:10;3.13;;;2.30;;
10013;SDS011;45684;48.358;10.746;2022-10-04T12:48:54;2.97;;;2.27;;
10013;SDS011;45684;48.358;10.746;2022-10-04T12:51:34;2.73;;;2.40;;
10013;SDS011;45684;48.358;10.746;2022-10-04T12:54:17;3.30;;;2.27;;
10013;SDS011;45684;48.358;10.746;2022-10-04T12:56:59;2.37;;;2.00;;
10013;SDS011;45684;48.358;10.746;2022-10-04T12:59:47;3.80;;;2.30;;
10013;SDS011;45684;48.358;10.746;2022-10-04T13:05:21;2.60;;;2.30;;
10013;SDS011;45684;48.358;10.746;2022-10-04T13:07:57;2.70;;;2.10;;
10013;SDS011;45684;48.358;10.746;2022-10-04T13:10:40;2.30;;;2.00;;
10013;SDS011;45684;48.358;10.746;2022-10-04T13:13:22;2.30;;;2.00;;
10013;SDS011;45684;48.358;10.746;2022-10-04T13:16:04;2.97;;;2.10;;
10013;SDS011;45684;48.358;10.746;2022-10-04T13:19:02;2.33;;;1.95;;
10013;SDS011;45684;48.358;10.746;2022-10-04T13:24:37;3.67;;;1.77;;
10013;SDS011;45684;48.358;10.746;2022-10-04T13:27:30;2.47;;;1.83;;
10013;SDS011;45684;48.358;10.746;2022-10-04T13:30:13;1.83;;;1.67;;
10013;SDS011;45684;48.358;10.746;2022-10-04T13:32:52;1.93;;;1.80;;
10013;SDS011;45684;48.358;10.746;2022-10-04T13:35:27;2.47;;;1.90;;
10013;SDS011;45684;48.358;10.746;2022-10-04T13:38:17;2.53;;;2.10;;
10013;SDS011;45684;48.358;10.746;2022-10-04T13:41:01;2.33;;;2.00;;
10013;SDS011;45684;48.358;10.746;2022-10-04T13:43:45;3.00;;;2.00;;
10013;SDS011;45684;48.358;10.746;2022-10-04T13:46:29;2.40;;;2.00;;
10013;SDS011;45684;48.358;10.746;2022-10-04T13:49:11;2.97;;;2.10;;
10013;SDS011;45684;48.358;10.746;2022-10-04T13:51:54;2.90;;;2.30;;
10013;SDS011;45684;48.358;10.746;2022-10-04T13:54:55;2.30;;;2.00;;
10013;SDS011;45684;48.358;10.746;2022-10-04T13:57:56;2.77;;;2.03;;
10013;SDS011;45684;48.358;10.746;2022-10-04T14:00:42;3.13;;;2.70;;
10013;SDS011;45684;48.358;10.746;2022-10-04T14:03:30;3.77;;;2.60;;
10013;SDS011;45684;48.358;10.746;2022-10-04T14:09:29;3.20;;;2.60;;
10013;SDS011;45684;48.358;10.746;2022-10-04T14:21:37;2.37;;;2.17;;
10013;SDS011;45684;48.358;10.746;2022-10-04T14:24:39;2.83;;;2.50;;
10013;SDS011;45684;48.358;10.746;2022-10-04T14:27:39;3.23;;;2.27;;
10013;SDS011;45684;48.358;10.746;2022-10-04T14:30:20;2.40;;;2.20;;
10013;SDS011;45684;48.358;10.746;2022-10-04T14:32:57;4.30;;;2.70;;
10013;SDS011;45684;48.358;10.746;2022-10-04T14:35:44;3.57;;;2.40;;
10013;SDS011;45684;48.358;10.746;2022-10-04T14:38:34;2.40;;;2.20;;
10013;SDS011;45684;48.358;10.746;2022-10-04T14:47:30;2.63;;;2.27;;
10013;SDS011;45684;48.358;10.746;2022-10-04T14:50:20;2.77;;;2.57;;
10013;SDS011;45684;48.358;10.746;2022-10-04T14:52:58;2.73;;;2.20;;
10013;SDS011;45684;48.358;10.746;2022-10-04T14:55:46;2.97;;;2.40;;
10013;SDS011;45684;48.358;10.746;2022-10-04T14:58:23;2.60;;;2.30;;
10013;SDS011;45684;48.358;10.746;2022-10-04T15:03:49;2.50;;;2.30;;
10013;SDS011;45684;48.358;10.746;2022-10-04T15:06:38;2.20;;;2.00;;
10013;SDS011;45684;48.358;10.746;2022-10-04T15:09:25;2.93;;;1.80;;
10013;SDS011;45684;48.358;10.746;2022-10-04T15:15:39;2.50;;;2.30;;
10013;SDS011;45684;48.358;10.746;2022-10-04T15:18:23;2.33;;;2.13;;
10013;SDS011;45684;48.358;10.746;2022-10-04T15:20:55;2.10;;;1.90;;
10013;SDS011;45684;48.358;10.746;2022-10-04T15:23:28;2.30;;;2.10;;
10013;SDS011;45684;48.358;10.746;2022-10-04T15:26:04;2.63;;;2.43;;
10013;SDS011;45684;48.358;10.746;2022-10-04T15:29:01;2.40;;;2.20;;
10013;SDS011;45684;48.358;10.746;2022-10-04T15:31:49;2.83;;;2.43;;
10013;SDS011;45684;48.358;10.746;2022-10-04T15:34:24;3.50;;;2.30;;
10013;SDS011;45684;48.358;10.746;2022-10-04T15:37:02;2.37;;;2.17;;
10013;SDS011;45684;48.358;10.746;2022-10-04T15:42:53;2.37;;;1.90;;
10013;SDS011;45684;48.358;10.746;2022-10-04T15:45:34;4.63;;;2.10;;
10013;SDS011;45684;48.358;10.746;2022-10-04T15:48:32;2.40;;;2.20;;
10013;SDS011;45684;48.358;10.746;2022-10-04T15:51:16;2.63;;;2.43;;
10013;SDS011;45684;48.358;10.746;2022-10-04T15:54:07;3.10;;;2.80;;
10013;SDS011;45684;48.358;10.746;2022-10-04T15:56:45;2.60;;;2.40;;
10013;SDS011;45684;48.358;10.746;2022-10-04T15:59:30;2.50;;;2.30;;
10013;SDS011;45684;48.358;10.746;2022-10-04T16:05:12;2.43;;;2.23;;
10013;SDS011;45684;48.358;10.746;2022-10-04T16:07:50;3.23;;;2.83;;
10013;SDS011;45684;48.358;10.746;2022-10-04T16:13:44;3.90;;;3.60;;
10013;SDS011;45684;48.358;10.746;2022-10-04T16:16:30;6.07;;;5.43;;
10013;SDS011;45684;48.358;10.746;2022-10-04T16:19:24;5.20;;;4.20;;
10013;SDS011;45684;48.358;10.746;2022-10-04T16:22:08;4.40;;;3.43;;
10013;SDS011;45684;48.358;10.746;2022-10-04T16:24:41;5.03;;;3.07;;
10013;SDS011;45684;48.358;10.746;2022-10-04T16:27:18;3.37;;;2.90;;
10013;SDS011;45684;48.358;10.746;2022-10-04T16:30:07;4.73;;;3.17;;
10013;SDS011;45684;48.358;10.746;2022-10-04T16:36:04;3.00;;;2.70;;
10013;SDS011;45684;48.358;10.746;2022-10-04T16:38:44;4.37;;;2.63;;
10013;SDS011;45684;48.358;10.746;2022-10-04T16:41:29;4.07;;;2.10;;
10013;SDS011;45684;48.358;10.746;2022-10-04T16:44:07;3.80;;;2.40;;
10013;SDS011;45684;48.358;10.746;2022-10-04T16:46:48;6.60;;;3.20;;
10013;SDS011;45684;48.358;10.746;2022-10-04T16:49:20;18.17;;;7.47;;
10013;SDS011;45684;48.358;10.746;2022-10-04T17:00:48;5.17;;;3.00;;
10013;SDS011;45684;48.358;10.746;2022-10-04T17:03:19;4.20;;;3.10;;
10013;SDS011;45684;48.358;10.746;2022-10-04T17:06:00;4.63;;;3.30;;
10013;SDS011;45684;48.358;10.746;2022-10-04T17:08:46;3.60;;;3.40;;
10013;SDS011;45684;48.358;10.746;2022-10-04T17:14:27;4.33;;;3.73;;
10013;SDS011;45684;48.358;10.746;2022-10-04T17:17:15;4.67;;;4.20;;
10013;SDS011;45684;48.358;10.746;2022-10-04T17:19:50;5.80;;;3.30;;
10013;SDS011;45684;48.358;10.746;2022-10-04T17:22:26;5.30;;;4.90;;
10013;SDS011;45684;48.358;10.746;2022-10-04T17:25:03;7.27;;;5.00;;
10013;SDS011;45684;48.358;10.746;2022-10-04T17:27:47;6.57;;;5.97;;
10013;SDS011;45684;48.358;10.746;2022-10-04T17:30:20;8.30;;;4.97;;
10013;SDS011;45684;48.358;10.746;2022-10-04T17:32:54;6.77;;;4.27;;
10013;SDS011;45684;48.358;10.746;2022-10-04T17:38:54;4.57;;;3.73;;
10013;SDS011;45684;48.358;10.746;2022-10-04T17:41:39;5.63;;;5.23;;
10013;SDS011;45684;48.358;10.746;2022-10-04T17:44:34;6.03;;;3.50;;
10013;SDS011;45684;48.358;10.746;2022-10-04T17:47:11;6.40;;;5.80;;
10013;SDS011;45684;48.358;10.746;2022-10-04T17:49:51;12.23;;;10.30;;
10013;SDS011;45684;48.358;10.746;2022-10-04T17:52:43;7.10;;;5.73;;
10013;SDS011;45684;48.358;10.746;2022-10-04T17:55:35;9.80;;;8.80;;
10013;SDS011;45684;48.358;10.746;2022-10-04T17:58:12;12.63;;;11.47;;
10013;SDS011;45684;48.358;10.746;2022-10-04T18:00:52;10.90;;;9.80;;
10013;SDS011;45684;48.358;10.746;2022-10-04T18:03:25;10.40;;;9.50;;
10013;SDS011;45684;48.358;10.746;2022-10-04T18:06:03;10.77;;;9.87;;
10013;SDS011;45684;48.358;10.746;2022-10-04T18:08:43;9.03;;;8.33;;
10013;SDS011;45684;48.358;10.746;2022-10-04T18:11:19;5.60;;;5.20;;
10013;SDS011;45684;48.358;10.746;2022-10-04T18:13:54;3.93;;;3.57;;